createdAt,value
2023-01-21T00:01:58.230Z,5.63
2023-01-21T00:04:00.373Z,5.65
2023-01-21T00:06:03.067Z,5.67
2023-01-21T00:08:05.171Z,5.70
2023-01-21T00:10:07.366Z,5.66
2023-01-21T00:12:09.462Z,5.63
2023-01-21T00:14:12.033Z,5.59
2023-01-21T00:16:14.870Z,5.63
2023-01-21T00:18:16.851Z,5.60
2023-01-21T00:20:19.310Z,5.65
2023-01-21T00:22:21.575Z,5.65
2023-01-21T00:24:24.618Z,5.65
2023-01-21T00:26:26.730Z,5.64
2023-01-21T00:28:30.538Z,5.64
2023-01-21T00:30:32.694Z,5.73
2023-01-21T00:32:34.710Z,5.74
2023-01-21T00:34:36.775Z,5.73
2023-01-21T00:36:41.894Z,5.72
2023-01-21T00:38:44.555Z,5.80
2023-01-21T00:40:46.580Z,5.84
2023-01-21T00:42:48.983Z,5.84
2023-01-21T00:44:51.106Z,5.91
2023-01-21T00:46:53.035Z,5.88
2023-01-21T00:48:56.209Z,5.96
2023-01-21T00:51:01.484Z,5.95
2023-01-21T00:53:03.566Z,5.94
2023-01-21T00:55:06.710Z,6.00
2023-01-21T00:57:09.273Z,6.07
2023-01-21T00:59:11.512Z,5.99
2023-01-21T01:01:17.173Z,6.05
2023-01-21T01:03:19.517Z,6.06
2023-01-21T01:05:22.573Z,6.05
2023-01-21T01:07:24.554Z,6.05
2023-01-21T01:09:26.697Z,6.06
2023-01-21T01:11:29.223Z,6.09
2023-01-21T01:13:33.042Z,6.07
2023-01-21T01:15:35.028Z,6.13
2023-01-21T01:17:37.030Z,6.11
2023-01-21T01:19:39.458Z,6.14
2023-01-21T01:21:41.321Z,6.09
2023-01-21T01:23:44.031Z,6.07
2023-01-21T01:26:06.277Z,6.07
2023-01-21T01:28:08.328Z,6.07
2023-01-21T01:30:11.091Z,6.02
2023-01-21T01:32:16.070Z,6.07
2023-01-21T01:34:18.672Z,6.02
2023-01-21T01:36:23.783Z,6.08
2023-01-21T01:38:25.967Z,6.07
2023-01-21T01:40:33.119Z,6.05
2023-01-21T01:42:35.121Z,6.06
2023-01-21T01:45:06.289Z,6.08
2023-01-21T01:47:08.244Z,6.08
2023-01-21T01:49:17.390Z,6.04
2023-01-21T01:51:26.480Z,6.09
2023-01-21T01:53:31.036Z,6.13
2023-01-21T01:55:35.780Z,6.15
2023-01-21T01:57:41.194Z,6.15
2023-01-21T01:59:43.807Z,6.20
2023-01-21T02:01:45.941Z,6.24
2023-01-21T02:03:56.982Z,6.21
2023-01-21T02:05:59.877Z,6.18
2023-01-21T02:08:02.307Z,6.16
2023-01-21T02:10:04.488Z,6.14
2023-01-21T02:12:07.474Z,6.16
2023-01-21T02:14:10.091Z,6.20
2023-01-21T02:16:33.519Z,6.17
2023-01-21T02:19:02.486Z,6.08
2023-01-21T02:21:25.919Z,6.04
2023-01-21T02:23:54.024Z,6.04
2023-01-21T02:26:26.910Z,6.12
2023-01-21T02:28:28.870Z,6.14
2023-01-21T02:31:02.276Z,6.11
2023-01-21T02:33:29.562Z,6.08
2023-01-21T02:35:43.428Z,6.06
2023-01-21T02:38:21.393Z,6.12
2023-01-21T02:40:29.326Z,5.99
2023-01-21T02:42:31.293Z,6.08
2023-01-21T02:44:39.221Z,6.08
2023-01-21T02:46:56.110Z,6.00
2023-01-21T02:49:11.893Z,5.94
2023-01-21T02:51:13.841Z,6.01
2023-01-21T02:53:36.613Z,5.95
2023-01-21T02:55:39.582Z,6.03
2023-01-21T02:57:56.839Z,5.93
2023-01-21T03:00:00.973Z,5.96
2023-01-21T03:02:21.067Z,5.99
2023-01-21T03:04:35.259Z,5.97
2023-01-21T03:07:02.640Z,5.96
2023-01-21T03:09:27.279Z,5.84
2023-01-21T03:11:29.808Z,5.88
2023-01-21T03:13:57.785Z,5.89
2023-01-21T03:16:18.494Z,5.92
2023-01-21T03:18:30.532Z,5.87
2023-01-21T03:20:37.866Z,5.81
2023-01-21T03:22:40.979Z,5.88
2023-01-21T03:24:46.941Z,5.85
2023-01-21T03:26:52.661Z,5.89
2023-01-21T03:29:01.095Z,5.92
2023-01-21T03:31:18.495Z,5.93
2023-01-21T03:33:22.256Z,5.95
2023-01-21T03:35:37.897Z,5.96
2023-01-21T03:38:01.183Z,5.94
2023-01-21T03:40:28.694Z,6.04
2023-01-21T03:42:31.351Z,6.06
2023-01-21T03:44:34.225Z,6.07
2023-01-21T03:47:05.488Z,6.06
2023-01-21T03:49:21.095Z,6.00
2023-01-21T03:51:33.155Z,6.09
2023-01-21T03:53:35.597Z,6.05
2023-01-21T03:55:37.692Z,6.04
2023-01-21T03:57:39.971Z,6.10
2023-01-21T03:59:42.476Z,6.09
2023-01-21T04:01:47.109Z,6.14
2023-01-21T04:03:49.779Z,6.13
2023-01-21T04:05:52.172Z,6.12
2023-01-21T04:07:54.607Z,6.18
2023-01-21T04:09:56.552Z,6.21
2023-01-21T04:12:02.799Z,6.17
2023-01-21T04:14:04.909Z,6.21
2023-01-21T04:16:07.519Z,6.22
2023-01-21T04:18:09.625Z,6.22
2023-01-21T04:20:12.392Z,6.23
2023-01-21T04:22:14.285Z,6.15
2023-01-21T04:24:16.468Z,6.14
2023-01-21T04:26:18.522Z,6.19
2023-01-21T04:28:20.681Z,6.15
2023-01-21T04:30:22.803Z,6.13
2023-01-21T04:32:24.828Z,6.15
2023-01-21T04:34:27.246Z,6.21
2023-01-21T04:36:29.383Z,6.15
2023-01-21T04:38:31.695Z,6.17
2023-01-21T04:40:33.759Z,6.15
2023-01-21T04:42:35.844Z,6.17
2023-01-21T04:44:37.792Z,6.27
2023-01-21T04:46:40.051Z,6.19
2023-01-21T04:48:42.376Z,6.27
2023-01-21T04:50:44.332Z,6.26
2023-01-21T04:52:46.310Z,6.24
2023-01-21T04:54:48.510Z,6.26
2023-01-21T04:56:50.526Z,6.25
2023-01-21T04:58:53.190Z,6.25
2023-01-21T05:00:55.734Z,6.31
2023-01-21T05:02:58.072Z,6.22
2023-01-21T05:05:00.129Z,6.24
2023-01-21T05:07:04.412Z,6.28
2023-01-21T05:09:06.434Z,6.24
2023-01-21T05:11:09.772Z,6.24
2023-01-21T05:13:11.829Z,6.25
2023-01-21T05:19:06.963Z,6.24
2023-01-21T05:21:09.134Z,6.21
2023-01-21T05:23:12.886Z,6.26
2023-01-21T05:25:16.286Z,6.25
2023-01-21T05:27:20.117Z,6.25
2023-01-21T05:29:22.531Z,6.32
2023-01-21T05:31:25.390Z,6.37
2023-01-21T05:33:34.993Z,6.28
2023-01-21T05:35:37.253Z,6.27
2023-01-21T05:37:39.285Z,6.23
2023-01-21T05:39:41.479Z,6.37
2023-01-21T05:41:43.516Z,6.29
2023-01-21T05:43:45.820Z,6.37
2023-01-21T05:45:47.842Z,6.29
2023-01-21T05:47:50.050Z,6.33
2023-01-21T05:49:51.881Z,6.32
2023-01-21T05:51:54.236Z,6.37
2023-01-21T05:53:56.333Z,6.38
2023-01-21T05:55:58.573Z,6.30
2023-01-21T05:58:01.183Z,6.32
2023-01-21T06:00:04.770Z,6.38
2023-01-21T06:02:06.802Z,6.35
2023-01-21T06:04:09.089Z,6.45
2023-01-21T06:06:11.150Z,6.38
2023-01-21T06:08:13.365Z,6.46
2023-01-21T06:10:15.845Z,6.50
2023-01-21T06:12:17.749Z,6.37
2023-01-21T06:14:19.467Z,6.34
2023-01-21T06:16:21.254Z,6.32
2023-01-21T06:18:23.970Z,6.27
2023-01-21T06:20:25.936Z,6.39
2023-01-21T06:22:27.715Z,6.35
2023-01-21T06:24:29.591Z,6.30
2023-01-21T06:26:31.301Z,6.36
2023-01-21T06:28:33.538Z,6.33
2023-01-21T06:30:35.280Z,6.36
2023-01-21T06:32:37.742Z,6.42
2023-01-21T06:34:39.625Z,6.43
2023-01-21T06:36:42.785Z,6.47
2023-01-21T06:38:44.570Z,6.51
2023-01-21T06:40:46.353Z,6.45
2023-01-21T06:42:49.466Z,6.48
2023-01-21T06:44:51.275Z,6.48
2023-01-21T06:47:00.628Z,6.44
2023-01-21T06:49:02.910Z,6.40
2023-01-21T06:51:04.876Z,6.43
2023-01-21T06:53:06.689Z,6.46
2023-01-21T06:55:09.362Z,6.56
2023-01-21T06:57:11.335Z,6.56
2023-01-21T06:59:13.454Z,6.55
2023-01-21T07:01:15.193Z,6.53
2023-01-21T07:03:16.956Z,6.52
2023-01-21T07:05:20.690Z,6.57
2023-01-21T07:07:22.704Z,6.54
2023-01-21T07:09:24.504Z,6.58
2023-01-21T07:11:26.488Z,6.56
2023-01-21T07:13:28.250Z,6.59
2023-01-21T07:15:31.095Z,6.53
2023-01-21T07:17:32.959Z,6.61
2023-01-21T07:19:34.750Z,6.61
2023-01-21T07:21:36.559Z,6.58
2023-01-21T07:23:38.412Z,6.58
2023-01-21T07:25:40.178Z,6.59
2023-01-21T07:27:42.101Z,6.54
2023-01-21T07:29:44.290Z,6.60
2023-01-21T07:31:46.145Z,6.60
2023-01-21T07:33:47.948Z,6.57
2023-01-21T07:35:50.107Z,6.60
2023-01-21T07:37:51.895Z,6.60
2023-01-21T07:39:55.937Z,6.62
2023-01-21T07:41:57.727Z,6.71
2023-01-21T07:44:01.754Z,6.76
2023-01-21T07:46:03.722Z,6.79
2023-01-21T07:48:05.999Z,6.85
2023-01-21T07:50:08.871Z,6.83
2023-01-21T07:52:10.828Z,6.81
2023-01-21T07:54:13.497Z,6.84
2023-01-21T07:56:16.331Z,6.89
2023-01-21T07:58:18.123Z,6.84
2023-01-21T08:00:20.246Z,6.87
2023-01-21T08:02:22.349Z,6.85
2023-01-21T08:04:25.474Z,6.90
2023-01-21T08:06:27.467Z,6.77
2023-01-21T08:08:29.265Z,6.80
2023-01-21T08:10:30.965Z,6.82
2023-01-21T08:12:32.825Z,6.78
2023-01-21T08:14:35.213Z,6.79
2023-01-21T08:16:37.015Z,6.82
2023-01-21T08:18:38.718Z,6.78
2023-01-21T08:20:40.467Z,6.87
2023-01-21T08:22:42.227Z,6.85
2023-01-21T08:24:44.142Z,6.89
2023-01-21T08:26:45.945Z,7.01
2023-01-21T08:28:47.715Z,6.99
2023-01-21T08:30:49.709Z,6.97
2023-01-21T08:32:51.658Z,7.07
2023-01-21T08:34:53.492Z,7.07
2023-01-21T08:36:55.574Z,7.01
2023-01-21T08:39:05.745Z,7.04
2023-01-21T08:41:07.523Z,7.10
2023-01-21T08:43:09.304Z,7.08
2023-01-21T08:45:12.350Z,6.98
2023-01-21T08:47:15.318Z,6.93
2023-01-21T08:49:17.151Z,7.09
2023-01-21T08:51:19.170Z,7.02
2023-01-21T08:53:21.666Z,7.12
2023-01-21T08:55:27.742Z,7.09
2023-01-21T08:57:29.538Z,7.08
2023-01-21T08:59:31.376Z,7.11
2023-01-21T09:01:33.701Z,7.13
2023-01-21T09:03:35.993Z,7.15
2023-01-21T09:05:37.736Z,7.16
2023-01-21T09:07:39.532Z,7.12
2023-01-21T09:09:41.336Z,7.09
2023-01-21T09:11:43.344Z,7.15
2023-01-21T09:13:45.725Z,7.15
2023-01-21T09:15:47.482Z,7.14
2023-01-21T09:17:49.317Z,7.18
2023-01-21T09:19:51.072Z,7.14
2023-01-21T09:21:54.383Z,7.16
2023-01-21T09:23:56.730Z,7.12
2023-01-21T09:26:01.323Z,7.12
2023-01-21T09:28:03.123Z,7.11
2023-01-21T09:30:05.874Z,7.13
2023-01-21T09:32:07.831Z,7.09
2023-01-21T09:34:11.782Z,7.13
2023-01-21T09:36:16.380Z,7.14
2023-01-21T09:38:18.161Z,7.12
2023-01-21T09:40:20.097Z,7.17
2023-01-21T09:42:27.861Z,7.13
2023-01-21T09:44:40.023Z,7.14
2023-01-21T09:46:44.714Z,7.16
2023-01-21T09:48:49.634Z,7.23
2023-01-21T09:50:52.538Z,7.26
2023-01-21T09:53:04.776Z,7.26
2023-01-21T09:55:17.854Z,7.29
2023-01-21T09:57:51.354Z,7.24
2023-01-21T10:00:15.598Z,7.26
2023-01-21T10:02:53.749Z,7.18
2023-01-21T10:05:18.391Z,7.17
2023-01-21T10:07:48.096Z,7.13
2023-01-21T10:10:07.859Z,7.22
2023-01-21T10:12:33.790Z,7.27
2023-01-21T10:14:48.861Z,7.28
2023-01-21T10:16:59.552Z,7.25
2023-01-21T10:19:04.055Z,7.27
2023-01-21T10:21:16.344Z,7.30
2023-01-21T10:23:33.910Z,7.33
2023-01-21T10:25:37.498Z,7.39
2023-01-21T10:27:42.551Z,7.39
2023-01-21T10:29:46.789Z,7.36
2023-01-21T10:31:59.388Z,7.35
2023-01-21T10:34:14.207Z,7.33
2023-01-21T10:36:35.481Z,7.39
2023-01-21T10:38:47.830Z,7.43
2023-01-21T10:40:59.326Z,7.45
2023-01-21T10:43:16.870Z,7.43
2023-01-21T10:45:30.895Z,7.47
2023-01-21T10:47:55.100Z,7.49
2023-01-21T10:50:03.117Z,7.52
2023-01-21T10:52:11.444Z,7.45
2023-01-21T10:54:35.313Z,7.43
2023-01-21T10:57:22.140Z,7.50
2023-01-21T10:59:28.259Z,7.66
2023-01-21T11:01:34.820Z,7.59
2023-01-21T11:03:45.899Z,7.63
2023-01-21T11:05:49.963Z,7.68
2023-01-21T11:07:52.734Z,7.62
2023-01-21T11:09:54.623Z,7.72
2023-01-21T11:11:56.672Z,7.73
2023-01-21T11:13:58.872Z,7.77
2023-01-21T11:16:02.387Z,7.71
2023-01-21T11:18:35.752Z,7.76
2023-01-21T11:20:42.471Z,7.83
2023-01-21T11:22:46.327Z,7.84
2023-01-21T11:24:50.406Z,7.81
2023-01-21T11:26:53.782Z,7.89
2023-01-21T11:29:13.191Z,7.92
2023-01-21T11:31:23.360Z,7.80
2023-01-21T11:33:27.740Z,7.87
2023-01-21T11:35:30.405Z,7.97
2023-01-21T11:37:33.511Z,8.03
2023-01-21T11:39:40.015Z,8.04
2023-01-21T11:41:51.917Z,8.00
2023-01-21T11:44:16.664Z,7.90
2023-01-21T11:46:37.304Z,7.85
2023-01-21T11:48:40.279Z,7.95
2023-01-21T11:50:42.095Z,7.98
2023-01-21T11:52:44.061Z,8.07
2023-01-21T11:54:46.718Z,8.10
2023-01-21T11:57:00.579Z,8.02
2023-01-21T11:59:11.062Z,8.03
2023-01-21T12:01:22.086Z,7.99
2023-01-21T12:03:53.357Z,7.91
2023-01-21T12:05:55.266Z,8.05
2023-01-21T12:07:58.158Z,8.14
2023-01-21T12:10:13.059Z,8.17
2023-01-21T12:12:29.023Z,8.15
2023-01-21T12:14:55.932Z,8.18
2023-01-21T12:17:16.244Z,8.19
2023-01-21T12:19:36.138Z,8.18
2023-01-21T12:21:58.984Z,8.27
2023-01-21T12:24:19.550Z,8.30
2023-01-21T12:26:33.968Z,8.38
2023-01-21T12:28:56.021Z,8.39
2023-01-21T12:31:08.264Z,8.41
2023-01-21T12:33:13.761Z,8.42
2023-01-21T12:35:28.659Z,8.40
2023-01-21T12:37:38.494Z,8.42
2023-01-21T12:39:42.981Z,8.45
2023-01-21T12:41:51.010Z,8.52
2023-01-21T12:43:58.691Z,8.57
2023-01-21T12:46:04.252Z,8.63
2023-01-21T12:48:14.833Z,8.68
2023-01-21T12:50:22.681Z,8.71
2023-01-21T12:52:50.277Z,8.77
2023-01-21T12:55:12.055Z,8.81
2023-01-21T12:57:28.264Z,8.85
2023-01-21T12:59:43.827Z,8.85
2023-01-21T13:02:05.703Z,8.82
2023-01-21T13:04:22.789Z,8.88
2023-01-21T13:07:02.758Z,8.93
2023-01-21T13:09:31.453Z,8.88
2023-01-21T13:11:39.103Z,8.97
2023-01-21T13:13:56.564Z,9.02
2023-01-21T13:16:05.384Z,9.04
2023-01-21T13:18:20.170Z,8.99
2023-01-21T13:20:23.371Z,9.08
2023-01-21T13:22:34.150Z,9.04
2023-01-21T13:28:42.568Z,9.07
2023-01-21T13:31:08.502Z,9.06
2023-01-21T13:33:22.489Z,9.02
2023-01-21T13:35:33.245Z,9.00
2023-01-21T13:38:01.863Z,9.03
2023-01-21T13:40:28.939Z,8.98
2023-01-21T13:42:46.154Z,9.13
2023-01-21T13:44:54.908Z,9.08
2023-01-21T13:47:14.861Z,9.03
2023-01-21T13:49:35.672Z,9.05
2023-01-21T13:52:05.698Z,9.05
2023-01-21T13:54:19.851Z,9.11
2023-01-21T13:56:50.608Z,9.09
2023-01-21T13:59:11.849Z,9.12
2023-01-21T14:01:22.773Z,9.08
2023-01-21T14:03:30.778Z,9.12
2023-01-21T14:05:41.200Z,9.17
2023-01-21T14:07:49.695Z,9.06
2023-01-21T14:10:12.900Z,9.13
2023-01-21T14:12:36.308Z,9.15
2023-01-21T14:15:09.536Z,9.18
2023-01-21T14:17:14.639Z,9.21
2023-01-21T14:19:38.071Z,9.18
2023-01-21T14:22:04.552Z,9.16
2023-01-21T14:24:24.954Z,9.21
2023-01-21T14:26:39.612Z,9.22
2023-01-21T14:29:09.381Z,9.25
2023-01-21T14:31:24.024Z,9.23
2023-01-21T14:33:54.846Z,9.23
2023-01-21T14:36:18.017Z,9.22
2023-01-21T14:38:26.114Z,9.25
2023-01-21T14:40:33.601Z,9.29
2023-01-21T14:42:50.288Z,9.28
2023-01-21T14:44:52.764Z,9.31
2023-01-21T14:47:18.210Z,9.22
2023-01-21T14:49:40.076Z,9.17
2023-01-21T14:51:49.263Z,9.16
2023-01-21T14:54:01.617Z,9.18
2023-01-21T14:56:06.779Z,9.25
2023-01-21T14:58:23.337Z,9.28
2023-01-21T15:00:30.509Z,9.29
2023-01-21T15:02:42.137Z,9.30
2023-01-21T15:04:54.643Z,9.27
2023-01-21T15:07:01.223Z,9.27
2023-01-21T15:09:05.700Z,9.27
2023-01-21T15:11:19.813Z,9.23
2023-01-21T15:13:34.207Z,9.13
2023-01-21T15:15:48.187Z,9.11
2023-01-21T15:17:57.836Z,9.01
2023-01-21T15:20:40.411Z,9.03
2023-01-21T15:22:46.889Z,9.04
2023-01-21T15:25:14.613Z,9.02
2023-01-21T15:27:26.024Z,8.90
2023-01-21T15:29:39.016Z,8.86
2023-01-21T15:31:44.783Z,8.93
2023-01-21T15:33:57.961Z,8.86
2023-01-21T15:36:01.367Z,8.84
2023-01-21T15:38:17.663Z,8.80
2023-01-21T15:40:33.552Z,8.87
2023-01-21T15:42:41.452Z,8.75
2023-01-21T15:45:02.151Z,8.79
2023-01-21T15:47:22.669Z,8.81
2023-01-21T15:49:44.442Z,8.78
2023-01-21T15:52:17.187Z,8.76
2023-01-21T15:54:46.641Z,8.72
2023-01-21T15:56:51.237Z,8.75
2023-01-21T15:58:59.414Z,8.75
2023-01-21T16:01:25.961Z,8.81
2023-01-21T16:03:35.304Z,8.82
2023-01-21T16:05:59.236Z,8.77
2023-01-21T16:08:11.097Z,8.76
2023-01-21T16:10:41.727Z,8.75
2023-01-21T16:13:14.600Z,8.75
2023-01-21T16:15:39.793Z,8.78
2023-01-21T16:17:56.890Z,8.63
2023-01-21T16:20:01.990Z,8.71
2023-01-21T16:22:09.699Z,8.72
2023-01-21T16:24:19.630Z,8.69
2023-01-21T16:26:31.948Z,8.69
2023-01-21T16:28:46.369Z,8.71
2023-01-21T16:30:54.642Z,8.85
2023-01-21T16:33:16.445Z,8.70
2023-01-21T16:35:18.787Z,8.83
2023-01-21T16:37:24.758Z,8.82
2023-01-21T16:39:27.011Z,8.86
2023-01-21T16:41:29.218Z,8.79
2023-01-21T16:43:34.117Z,8.78
2023-01-21T16:45:37.030Z,8.77
2023-01-21T16:47:40.257Z,8.75
2023-01-21T16:57:33.444Z,8.83
2023-01-21T16:59:41.076Z,8.77
2023-01-21T17:01:43.322Z,8.72
2023-01-21T17:03:47.774Z,8.79
2023-01-21T17:05:52.264Z,8.77
2023-01-21T17:08:01.108Z,8.71
2023-01-21T17:10:07.239Z,8.75
2023-01-21T17:12:22.007Z,8.69
2023-01-21T17:14:27.864Z,8.76
2023-01-21T17:16:34.670Z,8.71
2023-01-21T17:18:43.210Z,8.76
2023-01-21T17:20:53.306Z,8.68
2023-01-21T17:22:55.557Z,8.70
2023-01-21T17:25:24.730Z,8.70
2023-01-21T17:27:27.725Z,8.72
2023-01-21T17:29:34.265Z,8.68
2023-01-21T17:31:42.569Z,8.68
2023-01-21T17:33:45.422Z,8.63
2023-01-21T17:36:09.166Z,8.58
2023-01-21T17:38:30.368Z,8.54
2023-01-21T17:41:09.269Z,8.58
2023-01-21T17:43:25.925Z,8.63
2023-01-21T17:45:32.234Z,8.60
2023-01-21T17:47:56.050Z,8.56
2023-01-21T17:50:21.721Z,8.57
2023-01-21T17:52:24.511Z,8.63
2023-01-21T17:54:29.457Z,8.58
2023-01-21T17:56:36.517Z,8.49
2023-01-21T17:58:41.580Z,8.52
2023-01-21T18:00:45.615Z,8.50
2023-01-21T18:02:47.779Z,8.46
2023-01-21T18:04:49.905Z,8.42
2023-01-21T18:06:53.478Z,8.43
2023-01-21T18:08:57.542Z,8.43
2023-01-21T18:10:59.798Z,8.46
2023-01-21T18:13:02.474Z,8.47
2023-01-21T18:15:07.972Z,8.40
2023-01-21T18:17:18.835Z,8.47
2023-01-21T18:19:36.663Z,8.51
2023-01-21T18:21:38.634Z,8.57
2023-01-21T18:23:40.815Z,8.58
2023-01-21T18:25:44.986Z,8.63
2023-01-21T18:27:54.824Z,8.64
2023-01-21T18:29:58.220Z,8.66
2023-01-21T18:32:00.357Z,8.67
2023-01-21T18:34:02.875Z,8.68
2023-01-21T18:36:05.565Z,8.71
2023-01-21T18:38:19.568Z,8.59
2023-01-21T18:40:23.163Z,8.61
2023-01-21T18:42:25.902Z,8.52
2023-01-21T18:44:27.839Z,8.55
2023-01-21T18:46:29.969Z,8.57
2023-01-21T18:48:33.851Z,8.56
2023-01-21T18:50:36.175Z,8.62
2023-01-21T18:52:38.259Z,8.58
2023-01-21T18:54:40.845Z,8.64
2023-01-21T18:56:43.830Z,8.55
2023-01-21T18:58:45.948Z,8.50
2023-01-21T19:00:48.592Z,8.49
2023-01-21T19:02:53.798Z,8.47
2023-01-21T19:04:56.008Z,8.55
2023-01-21T19:06:58.302Z,8.50
2023-01-21T19:09:02.546Z,8.54
2023-01-21T19:11:04.928Z,8.57
2023-01-21T19:13:08.205Z,8.47
2023-01-21T19:15:21.613Z,8.52
2023-01-21T19:17:26.534Z,8.43
2023-01-21T19:19:28.563Z,8.42
2023-01-21T19:21:30.730Z,8.50
2023-01-21T19:23:32.784Z,8.59
2023-01-21T19:25:34.782Z,8.53
2023-01-21T19:27:41.159Z,8.50
2023-01-21T19:29:43.660Z,8.47
2023-01-21T19:31:45.651Z,8.46
2023-01-21T19:33:47.982Z,8.47
2023-01-21T19:35:52.797Z,8.46
2023-01-21T19:37:55.225Z,8.45
2023-01-21T19:39:57.248Z,8.41
2023-01-21T19:42:07.928Z,8.43
2023-01-21T19:44:10.549Z,8.50
2023-01-21T19:46:13.680Z,8.48
2023-01-21T19:48:18.188Z,8.44
2023-01-21T19:50:22.973Z,8.44
2023-01-21T19:52:24.929Z,8.46
2023-01-21T19:54:27.207Z,8.41
2023-01-21T19:56:29.328Z,8.40
2023-01-21T19:58:32.832Z,8.38
2023-01-21T20:00:36.298Z,8.36
2023-01-21T20:02:38.368Z,8.34
2023-01-21T20:04:40.627Z,8.28
2023-01-21T20:06:44.830Z,8.25
2023-01-21T20:08:47.674Z,8.22
2023-01-21T20:10:50.131Z,8.21
2023-01-21T20:12:53.146Z,8.25
2023-01-21T20:14:55.162Z,8.25
2023-01-21T20:16:57.330Z,8.20
2023-01-21T20:19:02.144Z,8.19
2023-01-21T20:21:07.282Z,8.23
2023-01-21T20:23:15.041Z,8.17
2023-01-21T20:25:21.485Z,8.20
2023-01-21T20:27:23.446Z,8.15
2023-01-21T20:29:27.199Z,8.19
2023-01-21T20:31:30.403Z,8.19
2023-01-21T20:33:33.080Z,8.24
2023-01-21T20:35:35.068Z,8.16
2023-01-21T20:37:37.388Z,8.25
2023-01-21T20:39:39.493Z,8.22
2023-01-21T20:41:43.485Z,8.32
2023-01-21T20:43:46.090Z,8.35
2023-01-21T20:45:49.549Z,8.28
2023-01-21T20:47:54.947Z,8.24
2023-01-21T20:49:59.577Z,8.26
2023-01-21T20:52:01.587Z,8.29
2023-01-21T20:54:04.440Z,8.34
2023-01-21T20:56:18.065Z,8.25
2023-01-21T20:58:22.338Z,8.31
2023-01-21T21:00:31.465Z,8.27
2023-01-21T21:02:33.699Z,8.20
2023-01-21T21:04:35.688Z,8.22
2023-01-21T21:06:37.873Z,8.18
2023-01-21T21:08:40.394Z,8.15
2023-01-21T21:10:43.355Z,8.22
2023-01-21T21:12:45.699Z,8.21
2023-01-21T21:14:47.941Z,8.18
2023-01-21T21:16:50.334Z,8.14
2023-01-21T21:18:52.628Z,8.09
2023-01-21T21:20:54.906Z,8.05
2023-01-21T21:22:56.920Z,8.02
2023-01-21T21:24:58.934Z,7.88
2023-01-21T21:27:01.369Z,7.92
2023-01-21T21:29:03.664Z,7.83
2023-01-21T21:31:06.049Z,7.85
2023-01-21T21:33:15.479Z,7.79
2023-01-21T21:35:29.862Z,7.82
2023-01-21T21:37:31.999Z,7.83
2023-01-21T21:39:34.257Z,7.91
2023-01-21T21:41:55.006Z,7.88
2023-01-21T21:43:57.021Z,7.89
2023-01-21T21:46:26.864Z,7.83
2023-01-21T21:48:38.840Z,7.82
2023-01-21T21:50:41.119Z,7.84
2023-01-21T21:52:43.201Z,7.85
2023-01-21T21:54:45.695Z,7.79
2023-01-21T21:56:50.959Z,7.66
2023-01-21T21:58:53.198Z,7.64
2023-01-21T22:00:55.678Z,7.61
2023-01-21T22:03:02.395Z,7.58
2023-01-21T22:05:07.631Z,7.63
2023-01-21T22:07:09.926Z,7.62
2023-01-21T22:09:13.212Z,7.61
2023-01-21T22:11:17.924Z,7.56
2023-01-21T22:13:20.366Z,7.61
2023-01-21T22:15:22.427Z,7.66
2023-01-21T22:17:24.525Z,7.67
2023-01-21T22:19:29.565Z,7.67
2023-01-21T22:21:34.159Z,7.68
2023-01-21T22:23:39.396Z,7.64
2023-01-21T22:25:41.555Z,7.68
2023-01-21T22:27:44.658Z,7.74
2023-01-21T22:29:46.933Z,7.81
2023-01-21T22:31:49.061Z,7.80
2023-01-21T22:33:51.932Z,7.84
2023-01-21T22:35:56.735Z,7.83
2023-01-21T22:37:58.820Z,7.93
2023-01-21T22:40:00.792Z,7.88
2023-01-21T22:42:05.040Z,7.97
2023-01-21T22:44:07.171Z,8.01
2023-01-21T22:46:12.309Z,8.11
2023-01-21T22:48:14.781Z,8.12
2023-01-21T22:50:17.343Z,8.22
2023-01-21T22:52:19.363Z,8.30
2023-01-21T22:54:21.514Z,8.38
2023-01-21T22:56:39.915Z,8.46
2023-01-21T22:58:47.621Z,8.54
2023-01-21T23:00:50.046Z,8.56
2023-01-21T23:02:52.016Z,8.54
2023-01-21T23:04:54.027Z,8.58
2023-01-21T23:06:56.487Z,8.59
2023-01-21T23:08:58.511Z,8.63
2023-01-21T23:11:12.186Z,8.61
2023-01-21T23:13:15.352Z,8.66
2023-01-21T23:15:17.461Z,8.65
2023-01-21T23:17:19.533Z,8.59
2023-01-21T23:19:21.606Z,8.68
2023-01-21T23:21:23.738Z,8.72
2023-01-21T23:31:26.195Z,8.64
2023-01-21T23:33:28.372Z,8.58
2023-01-21T23:35:31.512Z,8.59
2023-01-21T23:37:33.937Z,8.63
2023-01-21T23:39:36.103Z,8.67
2023-01-21T23:41:38.318Z,8.70
2023-01-21T23:43:41.313Z,8.71
2023-01-21T23:45:43.391Z,8.69
2023-01-21T23:47:47.503Z,8.60
2023-01-21T23:49:49.771Z,8.51
2023-01-21T23:51:52.012Z,8.60
2023-01-21T23:53:54.081Z,8.60
2023-01-21T23:56:09.415Z,8.47
2023-01-21T23:58:11.477Z,8.46
